Aledo, IL (61231)

3:23 PM CDT on July 28, 2017 (GMT -0500)
KILALEDO2 | | Change Station
Active Advisory: Flood Warning

Elev 735 ft 41.20 °N, 90.76 °W | Updated 7 seconds ago

Clear
Clear
82.4 °F
Feels Like 84 °F
N
0.0
Wind Variable Wind from NNE
Gusts 0.9 mph

Today
High -- | Low -- °F
--% Chance of Precip.
Yesterday
High -- | Low -- °F
Precip. -- in
Pressure 30.00 in
Visibility 10.0 miles
Clouds Clear
Heat Index 84 °F
Dew Point 64 °F
Humidity 54%
Rainfall 0.00 in
Snow Depth Not available.
5:54 AM 8:23 PM
Waxing Crescent, 33% visible
METAR KMLI 281952Z 04010KT 10SM CLR 27/16 A3001 RMK AO2 SLP158 T02720156
Pressure 30.00 in
Visibility 10.0 miles
Clouds Clear
Heat Index 84 °F
Dew Point 64 °F
Humidity 54%
Rainfall 0.00 in
Snow Depth Not available.
5:54 AM 8:23 PM
Waxing Crescent, 33% visible
METAR KMLI 281952Z 04010KT 10SM CLR 27/16 A3001 RMK AO2 SLP158 T02720156

Get Your Daily Forecast Email!

Thanks for signing up!

Be on the lookout for a verification email in your inbox.

You'll start receiving severe weather alerts in your inbox..

×

10-Day Weather Forecast

Almanac

Astronomy

Jul. 28, 2017 Rise Set
Actual Time
Civil Twilight
Nautical Twilight
Astronomical Twilight
Moon
Length of Visible Light
Length of Day
Tomorrow will be .
, % of the Moon is Illuminated

Today's Extremes

State Highs State Lows

Community

WunderPhotos

Category 6

Welcome to Category 6. This is the collective home for Weather Underground's featured writeups by Dr. Jeff Masters (right), Bob Henson (left), Chris Burt, and other regular contributors.

Nearby

Air Quality

  Air Quality AQ Index Pollutant
Not available.

Snow Depth

Station Depth Elevation

Earthquake Activity

City Distance Mag. Time & Date
Minimum magnitude displayed is 2.5.

Coastal Water Temperatures

Place Temperature

Stations

Nearby Weather Stations

Station Location Temp. Windchill Dew Point Humidity Wind Precip. Elev Updated Type
                   

Watches & Warnings

Flood Warning
Issued: 10:43 AM CDT Jul. 28, 2017 – National Weather Service

... Flood Warning now in effect until Saturday morning...

The Flood Warning continues for
the Mississippi River at Keithsburg.
* Until Saturday morning.
* At 10:30 am Friday the stage was 14.4 feet and steady.
* Flood stage is 14.0 feet.
* Minor flooding is occurring.
* Forecast... fall below flood stage Saturday morning.
* Impact... at 14.5 feet, water affects low lying areas in Oquawka.


Lat... Lon 4117 9106 4116 9097 4108 9091 4091 9094
      4094 9099




1043 am CDT Fri Jul 28 2017

... Flood Warning remains in effect until this evening...

The Flood Warning continues for
the Mississippi River at New Boston ld17.
* Until this evening.
* At 10:00 am Friday the stage was 15.3 feet and steady.
* Flood stage is 15.0 feet.
* Minor flooding is occurring.
* Forecast... fall below flood stage this evening.



Lat... Lon 4124 9114 4124 9108 4116 9097 4117 9106
      4119 9111